Time;durP1;ratioP1;P1;durP2;ratioP2;P2;SDS_P1;SDS_P2;PMS_P1;PMS_P2;Temp;Humidity;BMP_temperature;BMP_pressure;BME280_temperature;BME280_humidity;BME280_pressure;Samples;Min_cycle;Max_cycle;Signal;HPM_P1;HPM_P2
2021/05/03 00:01:06;;;;;;;6.67;5.73;;;3.60;99.90;;;;;;5031436;28;20199;-63
2021/05/03 00:03:31;;;;;;;10.20;6.50;;;3.60;99.90;;;;;;4998963;28;20180;-64
2021/05/03 00:05:57;;;;;;;13.77;5.87;;;3.50;99.90;;;;;;5011953;28;20238;-64
2021/05/03 00:08:26;;;;;;;13.83;5.90;;;3.50;99.90;;;;;;5025885;28;20183;-64
2021/05/03 00:10:52;;;;;;;6.40;5.83;;;3.50;99.90;;;;;;5031321;28;20176;-64
2021/05/03 00:13:19;;;;;;;7.90;6.00;;;3.40;99.90;;;;;;5018585;28;20176;-64
2021/05/03 00:15:45;;;;;;;6.47;5.77;;;3.40;99.90;;;;;;5012103;28;20543;-64
2021/05/03 00:18:10;;;;;;;8.97;5.57;;;3.40;99.90;;;;;;5005426;28;20172;-63
2021/05/03 00:20:36;;;;;;;6.33;5.43;;;3.40;99.90;;;;;;5031245;28;20168;-64
2021/05/03 00:23:02;;;;;;;13.00;6.70;;;3.30;99.90;;;;;;5021708;28;20245;-64
2021/05/03 00:25:28;;;;;;;14.43;6.90;;;3.30;99.90;;;;;;5011941;28;20184;-63
2021/05/03 00:27:53;;;;;;;7.80;5.93;;;3.30;99.90;;;;;;5020527;28;20229;-64
2021/05/03 00:30:19;;;;;;;12.20;6.60;;;3.20;99.90;;;;;;5030423;28;20176;-64
2021/05/03 00:32:46;;;;;;;15.23;6.57;;;3.20;99.90;;;;;;5024065;28;20206;-64
2021/05/03 00:35:12;;;;;;;17.50;6.77;;;3.10;99.90;;;;;;5011794;28;20182;-63
2021/05/03 00:37:39;;;;;;;6.97;6.27;;;3.10;99.90;;;;;;4999528;28;20181;-64
2021/05/03 00:40:06;;;;;;;10.80;6.40;;;3.20;99.90;;;;;;5031150;28;20168;-63
2021/05/03 00:42:33;;;;;;;9.07;7.37;;;3.10;99.90;;;;;;5026871;28;20212;-64
2021/05/03 00:45:08;;;;;;;10.63;8.33;;;3.10;99.90;;;;;;5011744;28;20528;-64
2021/05/03 00:47:35;;;;;;;10.53;8.20;;;3.20;99.90;;;;;;5016164;28;20198;-64
2021/05/03 00:50:05;;;;;;;11.93;8.33;;;3.10;99.90;;;;;;5031161;28;20215;-64
2021/05/03 00:52:31;;;;;;;11.70;7.20;;;3.10;99.90;;;;;;5027847;28;20210;-64
2021/05/03 00:54:58;;;;;;;7.27;6.47;;;3.00;99.90;;;;;;5031314;28;20633;-64
2021/05/03 00:57:24;;;;;;;9.83;6.77;;;3.00;99.90;;;;;;5029000;28;20172;-64
2021/05/03 00:59:50;;;;;;;10.30;7.13;;;3.00;99.90;;;;;;5017389;28;20205;-63
2021/05/03 01:02:16;;;;;;;8.43;7.43;;;3.00;99.90;;;;;;5033064;28;20188;-64
2021/05/03 01:04:42;;;;;;;8.27;6.53;;;3.00;99.90;;;;;;5015280;28;20180;-64
2021/05/03 01:07:08;;;;;;;8.07;7.20;;;3.00;99.90;;;;;;5015232;28;20586;-63
2021/05/03 01:09:34;;;;;;;11.03;7.37;;;3.00;99.90;;;;;;5034203;28;20183;-64
2021/05/03 01:12:00;;;;;;;9.77;7.87;;;3.00;99.90;;;;;;5034566;28;20673;-64
2021/05/03 01:14:25;;;;;;;8.77;7.27;;;2.90;99.90;;;;;;5016668;28;20183;-63
2021/05/03 01:16:51;;;;;;;8.63;7.37;;;2.90;99.90;;;;;;5015174;28;20172;-64
2021/05/03 01:19:20;;;;;;;8.87;7.57;;;2.90;99.90;;;;;;5030891;28;20261;-64
2021/05/03 01:21:47;;;;;;;9.40;8.37;;;2.80;99.90;;;;;;5034507;28;20330;-64
2021/05/03 01:24:13;;;;;;;9.60;7.60;;;2.80;99.90;;;;;;5019622;28;20188;-64
2021/05/03 01:26:38;;;;;;;9.60;7.47;;;2.70;99.90;;;;;;5014880;28;20184;-64
2021/05/03 01:29:04;;;;;;;8.70;7.57;;;2.70;99.90;;;;;;5028040;28;20549;-64
2021/05/03 01:31:29;;;;;;;10.70;8.47;;;2.70;99.90;;;;;;5034160;28;20207;-64
2021/05/03 01:33:55;;;;;;;8.37;7.53;;;2.60;99.90;;;;;;5022291;28;20181;-63
2021/05/03 01:36:21;;;;;;;9.10;8.20;;;2.60;99.90;;;;;;5016015;28;20620;-64
2021/05/03 01:38:46;;;;;;;10.17;8.80;;;2.50;99.90;;;;;;5021322;28;20258;-64
2021/05/03 01:41:12;;;;;;;11.23;10.03;;;2.50;99.90;;;;;;5032447;28;20281;-63
2021/05/03 01:43:37;;;;;;;9.93;8.93;;;2.50;99.90;;;;;;5026540;28;20188;-64
2021/05/03 01:46:03;;;;;;;12.03;9.67;;;2.50;99.90;;;;;;5033868;28;20172;-63
2021/05/03 01:48:31;;;;;;;10.27;9.17;;;2.50;99.90;;;;;;5014387;28;20184;-63
2021/05/03 01:50:58;;;;;;;12.63;9.27;;;2.70;99.90;;;;;;5014219;28;20595;-63
2021/05/03 01:53:25;;;;;;;11.97;8.73;;;2.50;99.90;;;;;;5015543;28;20172;-63
2021/05/03 01:55:54;;;;;;;12.37;8.87;;;2.60;99.90;;;;;;5014508;28;20666;-64
2021/05/03 01:58:22;;;;;;;11.13;8.20;;;2.50;99.90;;;;;;5031812;28;20536;-64
2021/05/03 02:00:49;;;;;;;10.27;9.13;;;2.60;99.90;;;;;;5034114;28;20180;-67
2021/05/03 02:03:27;;;;;;;10.83;9.73;;;2.50;99.90;;;;;;5018740;28;20175;-70
2021/05/03 02:05:53;;;;;;;9.70;8.60;;;2.50;99.90;;;;;;5035313;28;20175;-69
2021/05/03 02:08:19;;;;;;;10.03;9.03;;;2.50;99.90;;;;;;5017412;28;20168;-67
2021/05/03 02:10:46;;;;;;;9.57;8.27;;;2.60;99.90;;;;;;5014589;28;20177;-68
2021/05/03 02:13:13;;;;;;;13.03;8.47;;;2.50;99.90;;;;;;5025836;28;20270;-69
2021/05/03 02:15:38;;;;;;;9.93;8.70;;;2.50;99.90;;;;;;5035302;28;20562;-67
2021/05/03 02:18:05;;;;;;;16.23;9.07;;;2.50;99.90;;;;;;5020453;28;20183;-68
2021/05/03 02:20:31;;;;;;;9.63;8.60;;;2.50;99.90;;;;;;5014880;28;20176;-68
2021/05/03 02:22:58;;;;;;;11.17;8.07;;;2.50;99.90;;;;;;5009531;28;20207;-68
2021/05/03 02:25:24;;;;;;;9.27;8.37;;;2.40;99.90;;;;;;5034848;28;20187;-68
2021/05/03 02:27:50;;;;;;;10.07;8.63;;;2.40;99.90;;;;;;5034071;28;20522;-69
2021/05/03 02:30:19;;;;;;;10.50;8.33;;;2.40;99.90;;;;;;5033498;28;20184;-67
2021/05/03 02:32:45;;;;;;;18.40;15.13;;;2.50;99.90;;;;;;5005945;28;20212;-69
2021/05/03 02:35:18;;;;;;;20.10;14.63;;;2.50;99.90;;;;;;5014669;28;20188;-68
2021/05/03 02:37:48;;;;;;;12.73;8.80;;;2.40;99.90;;;;;;5024554;28;20199;-67
2021/05/03 02:40:15;;;;;;;9.43;8.37;;;2.40;99.90;;;;;;5034102;28;20698;-68
2021/05/03 02:42:40;;;;;;;9.80;8.90;;;2.40;99.90;;;;;;5025263;28;20215;-68
2021/05/03 02:45:07;;;;;;;12.03;8.37;;;2.40;99.90;;;;;;5014456;28;20543;-69
2021/05/03 02:47:32;;;;;;;9.57;8.67;;;2.40;99.90;;;;;;5021348;28;20270;-67
2021/05/03 02:49:58;;;;;;;8.50;7.60;;;2.40;99.90;;;;;;5034233;28;20619;-67
2021/05/03 02:52:24;;;;;;;12.13;8.10;;;2.40;99.90;;;;;;5027459;28;20262;-68
2021/05/03 02:54:49;;;;;;;14.23;9.50;;;2.30;99.90;;;;;;5014319;28;20520;-67
2021/05/03 02:57:15;;;;;;;9.30;7.90;;;2.30;99.90;;;;;;5018005;28;20611;-67
2021/05/03 02:59:41;;;;;;;10.23;8.43;;;2.30;99.90;;;;;;5016395;28;20404;-68
2021/05/03 03:02:06;;;;;;;12.53;8.23;;;2.30;99.90;;;;;;5031032;28;20290;-67
2021/05/03 03:04:32;;;;;;;9.47;8.40;;;2.30;99.90;;;;;;5020177;28;20195;-68
2021/05/03 03:06:58;;;;;;;10.03;7.77;;;2.20;99.90;;;;;;5031655;28;20179;-69
2021/05/03 03:09:23;;;;;;;10.97;8.30;;;2.20;99.90;;;;;;5013957;28;20191;-68
2021/05/03 03:11:49;;;;;;;10.57;8.40;;;2.20;99.90;;;;;;5013929;28;20235;-67
2021/05/03 03:14:15;;;;;;;11.10;8.60;;;2.20;99.90;;;;;;5016227;28;20201;-67
2021/05/03 03:16:41;;;;;;;17.60;9.20;;;2.30;99.90;;;;;;5033662;28;20168;-69
2021/05/03 03:19:07;;;;;;;13.87;8.60;;;2.30;99.90;;;;;;5015050;28;20520;-67
2021/05/03 03:21:32;;;;;;;11.43;9.13;;;2.20;99.90;;;;;;5013242;28;20196;-67
2021/05/03 03:23:58;;;;;;;10.50;8.73;;;2.20;99.90;;;;;;5030860;28;20183;-67
2021/05/03 03:26:24;;;;;;;11.37;9.40;;;2.20;99.90;;;;;;5033771;28;20536;-67
2021/05/03 03:28:51;;;;;;;13.40;9.50;;;2.10;99.90;;;;;;5016762;28;20183;-67
2021/05/03 03:31:17;;;;;;;13.30;9.03;;;2.00;99.90;;;;;;5013198;28;20208;-68
2021/05/03 03:33:43;;;;;;;12.57;9.33;;;2.00;99.90;;;;;;5027595;28;20675;-68
2021/05/03 03:36:08;;;;;;;9.83;8.83;;;1.90;99.90;;;;;;5023587;28;20176;-69
2021/05/03 03:38:34;;;;;;;16.10;9.33;;;1.80;99.90;;;;;;5013537;28;20183;-69
2021/05/03 03:41:01;;;;;;;10.90;9.73;;;1.80;99.90;;;;;;5020325;28;20179;-67
2021/05/03 03:43:27;;;;;;;14.20;10.37;;;1.70;99.90;;;;;;5033152;28;20258;-67
2021/05/03 03:45:52;;;;;;;13.37;9.70;;;1.60;99.90;;;;;;5026926;28;20206;-69
2021/05/03 03:48:18;;;;;;;12.17;9.73;;;1.60;99.90;;;;;;5013478;28;20672;-67
2021/05/03 03:50:44;;;;;;;10.70;9.60;;;1.50;99.90;;;;;;5017688;28;20183;-69
2021/05/03 03:53:10;;;;;;;12.43;9.90;;;1.40;99.90;;;;;;5032089;28;20613;-65
2021/05/03 03:55:35;;;;;;;14.20;10.00;;;1.40;99.90;;;;;;5028510;28;20665;-65
2021/05/03 03:58:01;;;;;;;14.37;9.63;;;1.40;99.90;;;;;;5012242;28;20175;-65
2021/05/03 04:00:27;;;;;;;12.73;10.57;;;1.50;99.90;;;;;;5013104;28;20176;-63
2021/05/03 04:02:54;;;;;;;17.07;11.17;;;1.40;99.90;;;;;;5031746;28;20192;-63
2021/05/03 04:13:21;;;;;;;15.87;9.97;;;1.50;99.90;;;;;;5031551;28;20286;-65
2021/05/03 04:26:17;;;;;;;13.97;11.43;;;1.70;99.90;;;;;;5025543;28;20179;-63
2021/05/03 04:28:45;;;;;;;13.50;11.80;;;1.80;99.90;;;;;;5011364;28;20218;-62
2021/05/03 04:31:10;;;;;;;16.60;11.97;;;1.80;99.90;;;;;;5015574;28;20207;-63
2021/05/03 04:33:36;;;;;;;17.53;12.10;;;1.90;99.90;;;;;;5031565;28;20552;-63
2021/05/03 04:36:02;;;;;;;16.33;11.60;;;2.10;99.90;;;;;;5029364;28;20174;-63
2021/05/03 04:38:28;;;;;;;18.30;12.13;;;2.20;99.90;;;;;;5015788;28;20176;-63
2021/05/03 04:40:54;;;;;;;14.63;11.63;;;2.50;99.90;;;;;;5016009;28;20172;-63
2021/05/03 04:43:20;;;;;;;13.97;11.60;;;2.60;99.90;;;;;;5035583;28;20174;-63
2021/05/03 04:45:46;;;;;;;15.57;12.17;;;2.90;99.90;;;;;;5034858;28;20178;-63
2021/05/03 04:48:12;;;;;;;13.00;11.50;;;3.20;99.90;;;;;;5015697;28;20267;-63
2021/05/03 04:50:38;;;;;;;14.37;10.27;;;3.60;99.90;;;;;;5015216;28;20188;-63
2021/05/03 04:53:04;;;;;;;17.77;10.87;;;4.00;99.90;;;;;;5033811;28;20281;-63
2021/05/03 04:55:30;;;;;;;15.40;10.63;;;4.30;99.90;;;;;;5016854;28;20547;-63
2021/05/03 04:57:55;;;;;;;14.67;9.50;;;4.60;99.90;;;;;;5018496;28;20230;-64
2021/05/03 05:00:22;;;;;;;16.17;9.23;;;4.90;99.90;;;;;;5015138;28;20226;-66
2021/05/03 05:02:47;;;;;;;15.80;8.10;;;5.10;99.90;;;;;;5017779;28;20228;-64
2021/05/03 05:05:13;;;;;;;10.80;8.73;;;5.30;99.90;;;;;;5013593;28;20219;-64
2021/05/03 05:07:40;;;;;;;12.43;7.93;;;5.50;99.90;;;;;;5023665;28;20180;-64
2021/05/03 05:10:09;;;;;;;9.30;8.30;;;5.80;99.90;;;;;;5033019;28;20305;-64
2021/05/03 05:12:34;;;;;;;10.67;7.80;;;6.00;99.90;;;;;;5022350;28;20208;-64
2021/05/03 05:15:00;;;;;;;10.33;8.63;;;6.20;99.90;;;;;;5015609;28;20660;-64
2021/05/03 05:17:26;;;;;;;8.47;7.63;;;6.20;99.90;;;;;;5016148;28;20230;-64
2021/05/03 05:19:53;;;;;;;11.83;8.13;;;6.40;99.90;;;;;;5015255;28;20180;-65
2021/05/03 05:22:19;;;;;;;13.17;9.13;;;6.50;99.90;;;;;;5024118;28;20199;-65
2021/05/03 05:24:45;;;;;;;15.17;10.97;;;6.50;99.90;;;;;;5034581;28;20192;-65
2021/05/03 05:27:11;;;;;;;10.13;8.27;;;6.50;99.90;;;;;;5025604;28;20180;-64
2021/05/03 05:29:36;;;;;;;8.73;7.83;;;6.50;99.90;;;;;;5014697;28;20188;-64
2021/05/03 05:32:03;;;;;;;9.43;8.57;;;6.50;99.90;;;;;;5021089;28;20208;-64
2021/05/03 05:34:28;;;;;;;10.17;7.73;;;6.50;99.90;;;;;;5034291;28;20262;-64
2021/05/03 05:36:54;;;;;;;8.47;7.50;;;6.50;99.90;;;;;;5029007;28;20705;-63
2021/05/03 05:39:20;;;;;;;9.30;7.67;;;6.50;99.90;;;;;;5010964;28;20176;-64
2021/05/03 05:41:45;;;;;;;8.77;7.67;;;6.40;99.90;;;;;;5015023;28;20297;-64
2021/05/03 05:44:11;;;;;;;8.87;7.10;;;6.40;99.90;;;;;;5014199;28;20207;-64
2021/05/03 05:46:39;;;;;;;11.10;8.20;;;6.40;99.90;;;;;;5014926;28;20192;-64
2021/05/03 05:49:04;;;;;;;9.70;7.60;;;6.40;99.90;;;;;;5014237;28;20164;-64
2021/05/03 05:51:30;;;;;;;8.87;7.97;;;6.40;99.90;;;;;;5014551;28;20254;-64
2021/05/03 05:53:56;;;;;;;11.47;7.93;;;6.40;99.90;;;;;;5033939;28;20191;-64
2021/05/03 05:56:22;;;;;;;7.83;7.07;;;6.50;99.90;;;;;;5033628;28;20289;-64
2021/05/03 05:58:47;;;;;;;7.70;6.90;;;6.60;99.90;;;;;;5014550;28;20215;-64
2021/05/03 06:01:13;;;;;;;7.60;6.90;;;6.60;99.90;;;;;;5013654;28;20506;-64
2021/05/03 06:03:40;;;;;;;14.40;7.27;;;6.60;99.90;;;;;;5030859;28;20179;-64
2021/05/03 06:06:06;;;;;;;9.27;6.67;;;6.60;99.90;;;;;;5033259;28;20168;-64
2021/05/03 06:08:32;;;;;;;12.03;7.20;;;6.60;99.90;;;;;;5017461;28;20560;-64
2021/05/03 06:10:57;;;;;;;9.50;7.93;;;6.50;99.90;;;;;;5017216;28;20184;-64
2021/05/03 06:13:23;;;;;;;10.00;6.53;;;6.40;99.90;;;;;;5028307;28;20179;-64
2021/05/03 06:15:49;;;;;;;9.13;8.23;;;6.40;99.90;;;;;;5033372;28;20577;-64
2021/05/03 06:18:14;;;;;;;8.37;7.23;;;6.40;99.90;;;;;;5030268;28;20183;-64
2021/05/03 06:20:40;;;;;;;9.07;7.40;;;6.40;99.90;;;;;;5033145;28;20175;-64
2021/05/03 06:23:08;;;;;;;9.20;7.70;;;6.50;99.90;;;;;;5004214;28;20624;-64
2021/05/03 06:25:34;;;;;;;11.33;7.67;;;6.80;99.90;;;;;;5013575;28;20179;-64
2021/05/03 06:28:00;;;;;;;12.80;7.40;;;7.10;99.90;;;;;;5023906;28;20601;-64
2021/05/03 06:30:27;;;;;;;9.53;7.50;;;7.40;99.90;;;;;;5033060;28;20184;-64
2021/05/03 06:32:53;;;;;;;8.33;7.37;;;7.70;99.90;;;;;;5023656;28;20200;-65
2021/05/03 06:35:19;;;;;;;7.73;6.90;;;7.90;99.90;;;;;;5013126;28;20180;-64
2021/05/03 06:37:45;;;;;;;8.53;7.27;;;8.30;99.90;;;;;;5013849;28;20180;-64
2021/05/03 06:40:12;;;;;;;8.60;6.30;;;8.70;99.90;;;;;;5012714;28;20176;-64
2021/05/03 06:42:38;;;;;;;8.33;6.97;;;9.10;99.90;;;;;;5013238;28;20216;-64
2021/05/03 06:45:04;;;;;;;10.93;7.43;;;9.30;99.90;;;;;;5011388;28;20208;-65
2021/05/03 06:47:30;;;;;;;8.90;7.30;;;9.20;99.90;;;;;;5018104;28;20176;-64
2021/05/03 06:49:56;;;;;;;8.87;6.90;;;9.10;99.90;;;;;;5032712;28;20575;-64
2021/05/03 06:52:22;;;;;;;9.90;7.70;;;9.10;99.90;;;;;;5030847;28;20261;-64
2021/05/03 06:54:48;;;;;;;9.60;7.40;;;9.20;99.90;;;;;;5032733;28;20506;-64
2021/05/03 06:57:14;;;;;;;9.27;7.27;;;9.30;99.90;;;;;;5030522;28;20182;-64
2021/05/03 06:59:39;;;;;;;9.67;7.00;;;9.30;99.90;;;;;;5030810;28;20706;-64
2021/05/03 07:02:05;;;;;;;6.97;6.27;;;9.40;99.90;;;;;;5031950;28;20199;-64
2021/05/03 07:04:32;;;;;;;8.80;6.90;;;9.60;99.90;;;;;;5012872;28;20176;-64
2021/05/03 07:06:58;;;;;;;8.60;6.00;;;9.90;99.90;;;;;;5012610;28;20661;-65
2021/05/03 07:09:23;;;;;;;8.47;7.20;;;10.30;99.90;;;;;;5028014;28;20212;-65
2021/05/03 07:11:51;;;;;;;7.47;6.70;;;10.70;99.90;;;;;;5012349;28;20204;-65
2021/05/03 07:14:17;;;;;;;12.73;7.07;;;11.20;99.90;;;;;;5012245;28;20179;-65
2021/05/03 07:16:42;;;;;;;7.03;5.80;;;11.60;99.90;;;;;;5032209;28;20637;-65
2021/05/03 07:19:08;;;;;;;7.60;6.80;;;12.20;99.90;;;;;;5016335;28;20180;-65
2021/05/03 07:21:36;;;;;;;6.10;5.50;;;12.90;99.90;;;;;;5010231;28;20212;-65
2021/05/03 07:24:02;;;;;;;5.80;5.20;;;13.80;99.90;;;;;;5026759;28;20193;-65
2021/05/03 07:26:28;;;;;;;7.03;5.43;;;14.30;99.90;;;;;;5031862;28;20179;-65
2021/05/03 07:28:54;;;;;;;6.33;5.73;;;15.00;99.90;;;;;;5017311;28;20184;-65
2021/05/03 07:31:20;;;;;;;8.67;5.03;;;15.40;99.90;;;;;;5011822;28;20283;-65
2021/05/03 07:33:45;;;;;;;5.43;4.93;;;15.80;99.90;;;;;;5006400;28;20585;-65
2021/05/03 07:36:11;;;;;;;9.43;4.87;;;16.20;99.90;;;;;;5032030;28;20178;-65
2021/05/03 07:38:37;;;;;;;5.27;4.77;;;16.30;99.90;;;;;;5011088;28;20195;-65
2021/05/03 07:41:04;;;;;;;8.93;4.87;;;16.50;99.90;;;;;;5025563;28;20286;-65
2021/05/03 07:43:30;;;;;;;5.57;4.17;;;16.30;99.90;;;;;;5022939;28;20230;-65
2021/05/03 07:45:55;;;;;;;8.97;5.00;;;16.00;99.90;;;;;;5011891;28;20176;-65
2021/05/03 07:48:21;;;;;;;6.60;4.70;;;16.00;99.90;;;;;;5019827;28;20187;-65
2021/05/03 07:50:47;;;;;;;4.70;4.30;;;16.20;99.90;;;;;;5031076;28;20194;-65
2021/05/03 07:53:12;;;;;;;6.30;4.47;;;16.20;99.90;;;;;;5025242;28;20553;-65
2021/05/03 07:55:38;;;;;;;6.37;4.60;;;16.40;99.90;;;;;;5012015;28;20207;-65
2021/05/03 07:58:04;;;;;;;7.93;4.23;;;16.40;99.90;;;;;;5015905;28;20175;-65
2021/05/03 08:00:30;;;;;;;7.17;5.40;;;16.60;99.90;;;;;;5031384;28;20156;-65
2021/05/03 08:02:57;;;;;;;6.13;5.03;;;16.60;99.90;;;;;;5027561;28;20692;-67
2021/05/03 08:05:23;;;;;;;6.77;5.00;;;16.40;99.90;;;;;;5011711;28;20180;-65
2021/05/03 08:07:49;;;;;;;7.47;5.20;;;16.60;99.40;;;;;;5012071;28;20298;-65
2021/05/03 08:10:15;;;;;;;6.80;4.63;;;16.40;99.00;;;;;;5024983;28;20258;-65
2021/05/03 08:12:40;;;;;;;5.03;4.63;;;16.40;99.00;;;;;;5027572;28;20215;-65
2021/05/03 08:15:14;;;;;;;7.50;4.40;;;16.80;99.90;;;;;;5031165;28;20167;-64
2021/05/03 08:17:44;;;;;;;9.37;4.50;;;17.00;98.10;;;;;;5015775;28;20180;-65
2021/05/03 08:20:12;;;;;;;7.23;4.43;;;17.20;98.10;;;;;;5011233;28;20576;-65
2021/05/03 08:22:37;;;;;;;4.97;4.00;;;16.80;96.00;;;;;;5026206;28;20203;-65
2021/05/03 08:25:06;;;;;;;10.73;4.87;;;16.90;97.90;;;;;;5031057;28;20246;-65
2021/05/03 08:27:31;;;;;;;7.73;4.73;;;16.90;96.90;;;;;;5017030;28;20180;-64
2021/05/03 08:29:57;;;;;;;6.00;4.77;;;16.60;96.10;;;;;;5010173;28;20254;-64
2021/05/03 08:32:23;;;;;;;5.60;4.50;;;16.70;96.10;;;;;;5023314;28;20215;-64
2021/05/03 08:34:48;;;;;;;6.97;4.77;;;16.80;95.90;;;;;;5031284;28;20167;-65
2021/05/03 08:37:14;;;;;;;8.43;4.80;;;17.30;95.10;;;;;;5020130;28;20832;-65
2021/05/03 08:39:40;;;;;;;7.43;4.50;;;17.40;95.60;;;;;;5011661;28;20176;-65
2021/05/03 08:42:08;;;;;;;7.57;4.93;;;17.50;95.90;;;;;;5019896;28;20218;-65
2021/05/03 08:44:34;;;;;;;7.47;4.93;;;17.60;96.50;;;;;;5031365;28;20186;-65
2021/05/03 08:47:00;;;;;;;7.47;4.68;;;18.10;96.80;;;;;;5022376;28;20176;-65
2021/05/03 08:52:08;;;;;;;5.65;5.10;;;19.20;94.70;;;;;;5017968;28;20600;-65
2021/05/03 08:54:40;;;;;;;6.15;5.28;;;18.80;94.70;;;;;;5031178;28;20178;-65
2021/05/03 08:57:08;;;;;;;5.85;5.00;;;18.80;93.60;;;;;;5022479;28;20669;-65
2021/05/03 08:59:35;;;;;;;9.65;4.88;;;18.90;92.70;;;;;;5011232;28;20184;-65
2021/05/03 09:02:03;;;;;;;5.53;4.90;;;19.10;92.30;;;;;;5017857;28;20214;-65
2021/05/03 09:04:29;;;;;;;9.20;5.97;;;18.80;92.00;;;;;;5030978;28;20322;-65
2021/05/03 09:07:10;;;;;;;8.93;5.93;;;18.70;91.40;;;;;;5024380;28;20188;-64
2021/05/03 09:09:40;;;;;;;8.68;4.85;;;18.80;91.60;;;;;;5011145;28;20223;-64
2021/05/03 09:12:09;;;;;;;6.38;4.75;;;19.00;93.00;;;;;;5013236;28;20208;-65
2021/05/03 09:14:51;;;;;;;6.25;5.50;;;19.40;90.60;;;;;;5022779;28;20178;-65
2021/05/03 09:17:30;;;;;;;6.10;5.38;;;19.10;90.20;;;;;;5021746;28;20176;-65
2021/05/03 09:19:58;;;;;;;8.00;5.15;;;19.20;91.20;;;;;;5010568;28;20175;-64
2021/05/03 09:22:33;;;;;;;6.43;5.75;;;19.00;90.10;;;;;;5020626;28;20214;-65
2021/05/03 09:25:18;;;;;;;5.73;4.97;;;18.20;87.30;;;;;;5034321;28;20520;-65
2021/05/03 09:27:46;;;;;;;5.93;5.33;;;17.30;90.30;;;;;;5022507;28;20176;-65
2021/05/03 09:30:12;;;;;;;8.77;6.20;;;17.40;91.00;;;;;;5014062;28;20587;-65
2021/05/03 09:32:38;;;;;;;6.03;4.97;;;17.50;88.80;;;;;;5024901;28;20203;-65
2021/05/03 09:35:04;;;;;;;8.73;4.75;;;17.80;90.60;;;;;;5034264;28;20325;-65
2021/05/03 09:37:34;;;;;;;5.73;5.17;;;18.00;89.30;;;;;;5025520;28;20176;-65
2021/05/03 09:40:09;;;;;;;5.93;5.30;;;18.10;87.50;;;;;;5001176;28;20644;-65
2021/05/03 09:42:41;;;;;;;10.48;5.20;;;18.20;90.60;;;;;;5034280;28;20225;-65
2021/05/03 09:45:10;;;;;;;5.80;5.07;;;18.60;91.20;;;;;;5028937;28;20194;-64
2021/05/03 09:47:36;;;;;;;6.38;5.22;;;18.40;90.20;;;;;;5014521;28;20327;-65
2021/05/03 09:50:14;;;;;;;5.90;5.30;;;18.20;89.10;;;;;;5017689;28;20171;-65
2021/05/03 09:52:59;;;;;;;7.77;5.33;;;17.80;86.40;;;;;;5034056;28;20203;-65
2021/05/03 09:55:43;;;;;;;5.63;5.10;;;17.90;89.20;;;;;;5028433;28;20191;-65
2021/05/03 09:58:11;;;;;;;8.63;5.60;;;17.50;87.40;;;;;;5033875;28;20318;-65
2021/05/03 10:00:44;;;;;;;7.03;5.63;;;16.90;89.10;;;;;;5025259;28;20641;-64
2021/05/03 10:03:46;;;;;;;8.57;5.40;;;16.70;90.50;;;;;;5013950;28;20524;-65
2021/05/03 10:06:14;;;;;;;5.77;5.27;;;16.90;89.20;;;;;;5026429;28;20618;-65
2021/05/03 10:08:43;;;;;;;7.77;5.77;;;17.20;86.50;;;;;;5033911;28;20544;-65
2021/05/03 10:11:10;;;;;;;7.30;5.40;;;17.20;87.90;;;;;;5021324;28;20224;-65
2021/05/03 10:13:39;;;;;;;7.90;5.07;;;17.60;89.00;;;;;;5014005;28;20179;-65
2021/05/03 10:16:08;;;;;;;6.17;5.50;;;18.20;87.80;;;;;;5024990;28;20539;-65
2021/05/03 10:18:40;;;;;;;7.28;5.22;;;18.50;84.60;;;;;;5017677;28;20177;-65
2021/05/03 10:21:10;;;;;;;6.63;5.75;;;19.20;87.30;;;;;;5023923;28;20200;-65
2021/05/03 10:23:45;;;;;;;7.68;5.80;;;19.50;85.40;;;;;;5033654;28;20187;-65
2021/05/03 10:26:11;;;;;;;6.15;5.30;;;19.20;88.50;;;;;;5025884;28;20329;-65
2021/05/03 10:29:23;;;;;;;9.00;5.53;;;19.00;84.70;;;;;;5013770;28;20554;-65
2021/05/03 10:32:01;;;;;;;6.90;5.60;;;18.40;85.90;;;;;;5009941;28;20219;-65
2021/05/03 10:34:41;;;;;;;6.47;5.50;;;18.30;82.70;;;;;;5032338;28;20190;-65
2021/05/03 10:37:28;;;;;;;7.57;5.47;;;18.40;85.40;;;;;;5014411;28;20172;-65
2021/05/03 10:39:54;;;;;;;5.90;5.30;;;18.90;85.00;;;;;;5013209;28;20207;-65
2021/05/03 10:42:20;;;;;;;11.50;6.93;;;19.10;84.00;;;;;;5013906;28;20243;-65
2021/05/03 10:45:08;;;;;;;6.70;6.07;;;18.90;83.50;;;;;;5013124;28;20180;-65
2021/05/03 10:47:43;;;;;;;6.00;5.33;;;18.40;85.90;;;;;;4993572;28;20191;-65
2021/05/03 10:50:44;;;;;;;6.73;5.90;;;18.40;87.10;;;;;;4994737;28;20176;-65
2021/05/03 10:56:08;;;;;;;5.77;5.27;;;17.90;82.50;;;;;;5025405;28;20176;-65
2021/05/03 10:58:52;;;;;;;6.20;5.30;;;17.90;82.10;;;;;;5013164;28;20171;-65
2021/05/03 11:01:19;;;;;;;6.97;5.60;;;17.80;81.70;;;;;;5022182;28;20199;-65
2021/05/03 11:03:57;;;;;;;6.77;5.77;;;17.80;84.10;;;;;;5032898;28;20254;-65
2021/05/03 11:06:44;;;;;;;6.50;6.00;;;18.10;83.10;;;;;;5022683;28;20583;-65
2021/05/03 11:12:06;;;;;;;9.87;7.50;;;17.60;83.60;;;;;;5025941;28;20313;-64
2021/05/03 11:14:36;;;;;;;8.10;6.03;;;17.50;85.40;;;;;;5032770;28;20160;-65
2021/05/03 11:17:03;;;;;;;7.07;6.37;;;17.30;83.00;;;;;;5017348;28;20207;-65
2021/05/03 11:22:14;;;;;;;7.40;6.70;;;17.60;84.90;;;;;;5016879;28;20207;-65
2021/05/03 11:25:16;;;;;;;7.53;6.80;;;17.40;88.20;;;;;;5012735;28;20172;-65
2021/05/03 11:30:28;;;;;;;7.73;6.70;;;16.50;85.00;;;;;;5031959;28;20179;-65
2021/05/03 11:32:58;;;;;;;8.27;7.47;;;16.10;85.30;;;;;;5032131;28;20207;-65
2021/05/03 11:35:31;;;;;;;7.87;7.10;;;16.30;88.00;;;;;;5031846;28;20636;-65
2021/05/03 11:38:06;;;;;;;6.53;5.90;;;17.20;88.30;;;;;;5017662;28;20522;-64
2021/05/03 11:46:36;;;;;;;9.20;5.80;;;18.30;82.80;;;;;;5018105;28;20207;-65
2021/05/03 11:49:12;;;;;;;7.53;6.57;;;17.70;84.70;;;;;;5031825;28;20211;-68
2021/05/03 11:51:45;;;;;;;7.10;6.40;;;16.90;83.20;;;;;;5022711;28;20203;-64
2021/05/03 11:54:46;;;;;;;7.17;5.83;;;16.50;82.40;;;;;;5012084;28;20176;-64
2021/05/03 11:57:17;;;;;;;5.47;5.07;;;16.50;79.80;;;;;;4983559;28;20226;-65
2021/05/03 11:59:43;;;;;;;5.07;4.57;;;17.10;82.20;;;;;;5024336;28;20183;-64
2021/05/03 12:02:13;;;;;;;5.43;4.93;;;18.10;80.00;;;;;;5028466;28;20606;-65
2021/05/03 12:04:42;;;;;;;5.35;4.85;;;19.10;78.10;;;;;;5031924;28;20179;-65
2021/05/03 12:07:11;;;;;;;8.00;4.97;;;19.20;79.00;;;;;;5019600;28;20709;-65
2021/05/03 12:09:37;;;;;;;8.90;5.70;;;19.40;81.30;;;;;;5011850;28;20206;-65
2021/05/03 12:12:04;;;;;;;10.67;5.97;;;18.80;76.10;;;;;;5021851;28;20230;-65
2021/05/03 12:14:57;;;;;;;7.73;5.97;;;18.10;76.90;;;;;;5031629;28;20180;-65
2021/05/03 12:17:24;;;;;;;6.60;5.90;;;17.80;79.60;;;;;;5017578;28;20187;-65
2021/05/03 12:19:55;;;;;;;8.60;7.00;;;17.90;79.80;;;;;;5029289;28;20198;-65
2021/05/03 12:22:22;;;;;;;6.87;6.17;;;18.50;81.30;;;;;;5018303;28;20211;-65
2021/05/03 12:24:48;;;;;;;5.20;4.53;;;18.90;82.10;;;;;;5011837;28;20182;-65
2021/05/03 12:27:15;;;;;;;7.70;5.57;;;19.10;78.80;;;;;;5023347;28;20637;-64
2021/05/03 12:29:43;;;;;;;5.83;5.23;;;18.90;78.40;;;;;;5032084;28;20274;-65
2021/05/03 12:32:17;;;;;;;6.90;6.23;;;18.60;80.60;;;;;;5022075;28;20564;-65
2021/05/03 12:34:49;;;;;;;7.73;5.50;;;18.50;78.60;;;;;;5011811;28;20176;-64
2021/05/03 12:37:22;;;;;;;5.93;5.40;;;18.20;79.40;;;;;;5022434;28;20187;-64
2021/05/03 12:40:04;;;;;;;6.13;5.63;;;18.00;79.10;;;;;;5031096;28;20216;-65
2021/05/03 12:42:41;;;;;;;6.10;5.30;;;18.00;78.90;;;;;;5018325;28;20223;-65
2021/05/03 12:45:23;;;;;;;6.63;5.30;;;17.90;79.40;;;;;;5011460;28;20238;-65
2021/05/03 12:53:32;;;;;;;6.33;4.30;;;18.90;79.70;;;;;;5011807;28;20290;-65
2021/05/03 13:04:28;;;;;;;9.47;4.30;;;18.40;75.60;;;;;;5015457;28;20184;-64
2021/05/03 13:29:02;;;;;;;5.83;4.63;;;17.60;76.80;;;;;;5034008;28;20179;-64
2021/05/03 13:31:29;;;;;;;8.27;5.10;;;17.50;77.40;;;;;;4999381;28;20569;-65
2021/05/03 13:33:55;;;;;;;7.83;4.90;;;17.40;79.70;;;;;;5014866;28;20267;-64
2021/05/03 13:36:21;;;;;;;5.40;4.90;;;17.20;76.00;;;;;;5030709;28;20198;-64
2021/05/03 13:38:48;;;;;;;5.00;4.57;;;16.90;76.30;;;;;;5034672;28;20172;-65
2021/05/03 13:41:14;;;;;;;5.33;4.40;;;16.70;77.80;;;;;;5019263;28;20751;-65
2021/05/03 13:43:39;;;;;;;5.17;4.70;;;16.60;77.00;;;;;;5033306;28;20179;-65
2021/05/03 13:46:05;;;;;;;5.13;4.30;;;16.40;78.50;;;;;;5021106;28;20180;-64
2021/05/03 13:48:31;;;;;;;7.10;4.50;;;16.50;77.80;;;;;;5014565;28;20573;-64
2021/05/03 13:50:56;;;;;;;5.70;4.50;;;16.30;79.20;;;;;;5025096;28;20180;-64
2021/05/03 13:53:22;;;;;;;6.60;4.50;;;16.30;80.60;;;;;;5033906;28;20211;-64
2021/05/03 13:55:48;;;;;;;4.67;4.27;;;16.30;80.00;;;;;;5023506;28;20262;-64
2021/05/03 13:58:13;;;;;;;4.50;3.80;;;16.20;79.10;;;;;;5014284;28;20173;-64
2021/05/03 14:00:39;;;;;;;4.93;4.53;;;16.00;78.60;;;;;;5020765;28;20175;-65
2021/05/03 14:03:05;;;;;;;6.70;4.80;;;15.90;79.20;;;;;;5033501;28;20612;-64
2021/05/03 14:05:30;;;;;;;8.07;4.60;;;16.00;79.10;;;;;;5030680;28;20175;-64
2021/05/03 14:07:56;;;;;;;5.13;4.50;;;16.20;79.30;;;;;;5032839;28;20259;-64